sensor_id;sensor_type;location;lat;lon;timestamp;P1;durP1;ratioP1;P2;durP2;ratioP2
2001;SDS011;1003;48.002;7.788;2023-03-19T00:00:21;4.17;;;2.00;;
2001;SDS011;1003;48.002;7.788;2023-03-19T00:02:48;10.90;;;4.33;;
2001;SDS011;1003;48.002;7.788;2023-03-19T00:05:16;6.27;;;3.20;;
2001;SDS011;1003;48.002;7.788;2023-03-19T00:07:43;3.63;;;1.93;;
2001;SDS011;1003;48.002;7.788;2023-03-19T00:10:11;2.47;;;1.90;;
2001;SDS011;1003;48.002;7.788;2023-03-19T00:12:39;2.57;;;1.83;;
2001;SDS011;1003;48.002;7.788;2023-03-19T00:15:06;2.23;;;1.80;;
2001;SDS011;1003;48.002;7.788;2023-03-19T00:17:38;8.80;;;3.80;;
2001;SDS011;1003;48.002;7.788;2023-03-19T00:20:07;4.07;;;2.17;;
2001;SDS011;1003;48.002;7.788;2023-03-19T00:22:36;2.30;;;1.77;;
2001;SDS011;1003;48.002;7.788;2023-03-19T00:25:05;3.30;;;2.03;;
2001;SDS011;1003;48.002;7.788;2023-03-19T00:27:33;2.30;;;1.90;;
2001;SDS011;1003;48.002;7.788;2023-03-19T00:30:02;2.83;;;2.07;;
2001;SDS011;1003;48.002;7.788;2023-03-19T00:32:31;2.57;;;1.97;;
2001;SDS011;1003;48.002;7.788;2023-03-19T00:34:59;5.70;;;2.13;;
2001;SDS011;1003;48.002;7.788;2023-03-19T00:37:26;2.63;;;2.00;;
2001;SDS011;1003;48.002;7.788;2023-03-19T00:39:54;3.10;;;2.27;;
2001;SDS011;1003;48.002;7.788;2023-03-19T00:42:21;4.97;;;2.17;;
2001;SDS011;1003;48.002;7.788;2023-03-19T00:44:48;2.57;;;1.90;;
2001;SDS011;1003;48.002;7.788;2023-03-19T00:47:17;2.90;;;2.00;;
2001;SDS011;1003;48.002;7.788;2023-03-19T00:49:44;4.80;;;2.30;;
2001;SDS011;1003;48.002;7.788;2023-03-19T00:52:11;4.00;;;1.90;;
2001;SDS011;1003;48.002;7.788;2023-03-19T00:54:38;2.57;;;2.00;;
2001;SDS011;1003;48.002;7.788;2023-03-19T00:57:06;3.33;;;2.40;;
2001;SDS011;1003;48.002;7.788;2023-03-19T00:59:33;2.97;;;2.00;;
2001;SDS011;1003;48.002;7.788;2023-03-19T01:02:00;2.97;;;2.10;;
2001;SDS011;1003;48.002;7.788;2023-03-19T01:04:29;2.83;;;2.07;;
2001;SDS011;1003;48.002;7.788;2023-03-19T01:06:56;2.63;;;2.07;;
2001;SDS011;1003;48.002;7.788;2023-03-19T01:09:24;5.07;;;2.10;;
2001;SDS011;1003;48.002;7.788;2023-03-19T01:11:51;2.67;;;2.10;;
2001;SDS011;1003;48.002;7.788;2023-03-19T01:14:18;3.47;;;2.13;;
2001;SDS011;1003;48.002;7.788;2023-03-19T01:16:45;3.10;;;2.07;;
2001;SDS011;1003;48.002;7.788;2023-03-19T01:19:12;3.93;;;2.30;;
2001;SDS011;1003;48.002;7.788;2023-03-19T01:21:41;3.43;;;2.40;;
2001;SDS011;1003;48.002;7.788;2023-03-19T01:24:10;3.70;;;2.20;;
2001;SDS011;1003;48.002;7.788;2023-03-19T01:26:37;3.97;;;2.23;;
2001;SDS011;1003;48.002;7.788;2023-03-19T01:29:04;3.07;;;2.30;;
2001;SDS011;1003;48.002;7.788;2023-03-19T01:31:32;3.33;;;2.30;;
2001;SDS011;1003;48.002;7.788;2023-03-19T01:33:59;5.13;;;2.43;;
2001;SDS011;1003;48.002;7.788;2023-03-19T01:36:26;2.33;;;1.80;;
2001;SDS011;1003;48.002;7.788;2023-03-19T01:38:55;2.77;;;2.00;;
2001;SDS011;1003;48.002;7.788;2023-03-19T01:41:22;3.37;;;2.10;;
2001;SDS011;1003;48.002;7.788;2023-03-19T01:43:49;3.33;;;2.00;;
2001;SDS011;1003;48.002;7.788;2023-03-19T01:46:19;6.17;;;2.10;;
2001;SDS011;1003;48.002;7.788;2023-03-19T01:48:54;3.27;;;2.00;;
2001;SDS011;1003;48.002;7.788;2023-03-19T01:51:25;2.57;;;1.83;;
2001;SDS011;1003;48.002;7.788;2023-03-19T01:54:01;2.43;;;1.70;;
2001;SDS011;1003;48.002;7.788;2023-03-19T01:56:34;3.13;;;1.83;;
2001;SDS011;1003;48.002;7.788;2023-03-19T01:59:05;3.07;;;1.87;;
2001;SDS011;1003;48.002;7.788;2023-03-19T02:01:40;2.73;;;1.80;;
2001;SDS011;1003;48.002;7.788;2023-03-19T02:04:15;2.37;;;1.70;;
2001;SDS011;1003;48.002;7.788;2023-03-19T02:06:44;1.70;;;1.60;;
2001;SDS011;1003;48.002;7.788;2023-03-19T02:09:14;2.53;;;1.73;;
2001;SDS011;1003;48.002;7.788;2023-03-19T02:11:42;1.60;;;1.50;;
2001;SDS011;1003;48.002;7.788;2023-03-19T02:14:10;1.67;;;1.57;;
2001;SDS011;1003;48.002;7.788;2023-03-19T02:16:37;3.43;;;1.60;;
2001;SDS011;1003;48.002;7.788;2023-03-19T02:19:05;4.57;;;1.80;;
2001;SDS011;1003;48.002;7.788;2023-03-19T02:21:40;1.50;;;1.40;;
2001;SDS011;1003;48.002;7.788;2023-03-19T02:24:08;2.10;;;1.50;;
2001;SDS011;1003;48.002;7.788;2023-03-19T02:26:43;2.60;;;1.50;;
2001;SDS011;1003;48.002;7.788;2023-03-19T02:29:12;2.70;;;1.60;;
2001;SDS011;1003;48.002;7.788;2023-03-19T02:31:39;2.33;;;1.20;;
2001;SDS011;1003;48.002;7.788;2023-03-19T02:34:15;2.20;;;1.60;;
2001;SDS011;1003;48.002;7.788;2023-03-19T02:37:10;1.50;;;1.23;;
2001;SDS011;1003;48.002;7.788;2023-03-19T02:39:46;1.90;;;1.30;;
2001;SDS011;1003;48.002;7.788;2023-03-19T02:42:22;3.00;;;1.30;;
2001;SDS011;1003;48.002;7.788;2023-03-19T02:44:53;1.53;;;1.43;;
2001;SDS011;1003;48.002;7.788;2023-03-19T02:47:20;2.87;;;1.60;;
2001;SDS011;1003;48.002;7.788;2023-03-19T02:49:48;2.70;;;1.50;;
2001;SDS011;1003;48.002;7.788;2023-03-19T02:52:15;1.83;;;1.60;;
2001;SDS011;1003;48.002;7.788;2023-03-19T02:54:43;2.13;;;1.53;;
2001;SDS011;1003;48.002;7.788;2023-03-19T02:57:10;2.57;;;1.70;;
2001;SDS011;1003;48.002;7.788;2023-03-19T02:59:39;2.40;;;1.50;;
2001;SDS011;1003;48.002;7.788;2023-03-19T03:02:06;2.03;;;1.57;;
2001;SDS011;1003;48.002;7.788;2023-03-19T03:04:34;2.03;;;1.40;;
2001;SDS011;1003;48.002;7.788;2023-03-19T03:07:02;2.87;;;1.50;;
2001;SDS011;1003;48.002;7.788;2023-03-19T03:09:30;2.60;;;1.70;;
2001;SDS011;1003;48.002;7.788;2023-03-19T03:11:57;1.60;;;1.50;;
2001;SDS011;1003;48.002;7.788;2023-03-19T03:14:24;3.17;;;1.50;;
2001;SDS011;1003;48.002;7.788;2023-03-19T03:16:52;2.10;;;1.57;;
2001;SDS011;1003;48.002;7.788;2023-03-19T03:19:21;1.97;;;1.33;;
2001;SDS011;1003;48.002;7.788;2023-03-19T03:21:48;2.13;;;1.60;;
2001;SDS011;1003;48.002;7.788;2023-03-19T03:24:16;2.30;;;1.67;;
2001;SDS011;1003;48.002;7.788;2023-03-19T03:26:43;2.60;;;1.53;;
2001;SDS011;1003;48.002;7.788;2023-03-19T03:29:10;2.07;;;1.53;;
2001;SDS011;1003;48.002;7.788;2023-03-19T03:31:37;1.43;;;1.30;;
2001;SDS011;1003;48.002;7.788;2023-03-19T03:34:05;2.33;;;1.60;;
2001;SDS011;1003;48.002;7.788;2023-03-19T03:36:32;3.57;;;1.60;;
2001;SDS011;1003;48.002;7.788;2023-03-19T03:38:59;1.83;;;1.30;;
2001;SDS011;1003;48.002;7.788;2023-03-19T03:41:28;1.40;;;1.30;;
2001;SDS011;1003;48.002;7.788;2023-03-19T03:43:55;2.57;;;1.50;;
2001;SDS011;1003;48.002;7.788;2023-03-19T03:46:22;2.73;;;1.67;;
2001;SDS011;1003;48.002;7.788;2023-03-19T03:48:49;3.33;;;1.50;;
2001;SDS011;1003;48.002;7.788;2023-03-19T03:51:18;1.70;;;1.30;;
2001;SDS011;1003;48.002;7.788;2023-03-19T03:53:46;2.17;;;1.50;;
2001;SDS011;1003;48.002;7.788;2023-03-19T03:56:13;2.23;;;1.60;;
2001;SDS011;1003;48.002;7.788;2023-03-19T03:58:40;3.43;;;1.70;;
2001;SDS011;1003;48.002;7.788;2023-03-19T04:01:08;3.33;;;1.73;;
2001;SDS011;1003;48.002;7.788;2023-03-19T04:03:40;2.37;;;1.53;;
2001;SDS011;1003;48.002;7.788;2023-03-19T04:06:07;1.70;;;1.47;;
2001;SDS011;1003;48.002;7.788;2023-03-19T04:08:41;1.63;;;1.53;;
2001;SDS011;1003;48.002;7.788;2023-03-19T04:11:08;3.40;;;1.83;;
2001;SDS011;1003;48.002;7.788;2023-03-19T04:13:35;4.47;;;1.90;;
2001;SDS011;1003;48.002;7.788;2023-03-19T04:16:03;2.50;;;1.80;;
2001;SDS011;1003;48.002;7.788;2023-03-19T04:18:32;1.97;;;1.63;;
2001;SDS011;1003;48.002;7.788;2023-03-19T04:20:59;2.70;;;1.60;;
2001;SDS011;1003;48.002;7.788;2023-03-19T04:23:27;3.57;;;1.60;;
2001;SDS011;1003;48.002;7.788;2023-03-19T04:25:58;1.47;;;1.30;;
2001;SDS011;1003;48.002;7.788;2023-03-19T04:28:26;1.87;;;1.33;;
2001;SDS011;1003;48.002;7.788;2023-03-19T04:30:57;2.27;;;1.67;;
2001;SDS011;1003;48.002;7.788;2023-03-19T04:33:25;2.20;;;1.47;;
2001;SDS011;1003;48.002;7.788;2023-03-19T04:35:52;1.70;;;1.40;;
2001;SDS011;1003;48.002;7.788;2023-03-19T04:38:19;1.70;;;1.43;;
2001;SDS011;1003;48.002;7.788;2023-03-19T04:40:46;1.87;;;1.37;;
2001;SDS011;1003;48.002;7.788;2023-03-19T04:43:15;2.37;;;1.30;;
2001;SDS011;1003;48.002;7.788;2023-03-19T04:45:43;3.13;;;1.70;;
2001;SDS011;1003;48.002;7.788;2023-03-19T04:48:10;2.13;;;1.33;;
2001;SDS011;1003;48.002;7.788;2023-03-19T04:50:37;1.27;;;1.17;;
2001;SDS011;1003;48.002;7.788;2023-03-19T04:53:05;2.60;;;1.30;;
2001;SDS011;1003;48.002;7.788;2023-03-19T04:55:33;1.90;;;1.40;;
2001;SDS011;1003;48.002;7.788;2023-03-19T04:58:00;2.80;;;1.40;;
2001;SDS011;1003;48.002;7.788;2023-03-19T05:00:28;1.73;;;1.10;;
2001;SDS011;1003;48.002;7.788;2023-03-19T05:02:55;2.10;;;1.47;;
2001;SDS011;1003;48.002;7.788;2023-03-19T05:05:23;3.10;;;1.43;;
2001;SDS011;1003;48.002;7.788;2023-03-19T05:07:50;1.60;;;1.50;;
2001;SDS011;1003;48.002;7.788;2023-03-19T05:10:17;2.43;;;1.40;;
2001;SDS011;1003;48.002;7.788;2023-03-19T05:12:45;2.90;;;1.60;;
2001;SDS011;1003;48.002;7.788;2023-03-19T05:15:12;1.70;;;1.00;;
2001;SDS011;1003;48.002;7.788;2023-03-19T05:17:41;1.20;;;1.10;;
2001;SDS011;1003;48.002;7.788;2023-03-19T05:20:08;1.30;;;1.20;;
2001;SDS011;1003;48.002;7.788;2023-03-19T05:22:37;3.07;;;1.30;;
2001;SDS011;1003;48.002;7.788;2023-03-19T05:25:04;1.60;;;1.50;;
2001;SDS011;1003;48.002;7.788;2023-03-19T05:27:31;2.00;;;1.30;;
2001;SDS011;1003;48.002;7.788;2023-03-19T05:29:58;4.80;;;1.20;;
2001;SDS011;1003;48.002;7.788;2023-03-19T05:32:25;2.03;;;1.83;;
2001;SDS011;1003;48.002;7.788;2023-03-19T05:34:54;2.30;;;1.57;;
2001;SDS011;1003;48.002;7.788;2023-03-19T05:37:22;3.60;;;1.80;;
2001;SDS011;1003;48.002;7.788;2023-03-19T05:39:49;4.50;;;1.93;;
2001;SDS011;1003;48.002;7.788;2023-03-19T05:42:16;2.17;;;1.70;;
2001;SDS011;1003;48.002;7.788;2023-03-19T05:44:43;3.53;;;1.70;;
2001;SDS011;1003;48.002;7.788;2023-03-19T05:47:10;4.07;;;1.80;;
2001;SDS011;1003;48.002;7.788;2023-03-19T05:49:37;2.40;;;1.80;;
2001;SDS011;1003;48.002;7.788;2023-03-19T05:52:06;2.80;;;2.00;;
2001;SDS011;1003;48.002;7.788;2023-03-19T05:54:33;2.77;;;1.90;;
2001;SDS011;1003;48.002;7.788;2023-03-19T05:57:00;2.60;;;2.00;;
2001;SDS011;1003;48.002;7.788;2023-03-19T05:59:30;4.63;;;2.00;;
2001;SDS011;1003;48.002;7.788;2023-03-19T06:01:57;3.83;;;2.10;;
2001;SDS011;1003;48.002;7.788;2023-03-19T06:04:25;2.67;;;1.83;;
2001;SDS011;1003;48.002;7.788;2023-03-19T06:06:52;3.47;;;1.90;;
2001;SDS011;1003;48.002;7.788;2023-03-19T06:09:20;2.63;;;2.00;;
2001;SDS011;1003;48.002;7.788;2023-03-19T06:11:47;3.50;;;2.23;;
2001;SDS011;1003;48.002;7.788;2023-03-19T06:14:14;2.23;;;2.00;;
2001;SDS011;1003;48.002;7.788;2023-03-19T06:16:41;2.53;;;1.90;;
2001;SDS011;1003;48.002;7.788;2023-03-19T06:19:08;2.63;;;1.87;;
2001;SDS011;1003;48.002;7.788;2023-03-19T06:21:35;2.60;;;1.93;;
2001;SDS011;1003;48.002;7.788;2023-03-19T06:24:02;3.67;;;2.07;;
2001;SDS011;1003;48.002;7.788;2023-03-19T06:26:32;3.20;;;2.20;;
2001;SDS011;1003;48.002;7.788;2023-03-19T06:28:59;2.80;;;1.87;;
2001;SDS011;1003;48.002;7.788;2023-03-19T06:31:26;2.30;;;1.80;;
2001;SDS011;1003;48.002;7.788;2023-03-19T06:33:53;2.23;;;1.70;;
2001;SDS011;1003;48.002;7.788;2023-03-19T06:36:21;2.13;;;1.70;;
2001;SDS011;1003;48.002;7.788;2023-03-19T06:38:48;3.60;;;1.90;;
2001;SDS011;1003;48.002;7.788;2023-03-19T06:41:16;2.90;;;1.87;;
2001;SDS011;1003;48.002;7.788;2023-03-19T06:43:44;3.07;;;2.00;;
2001;SDS011;1003;48.002;7.788;2023-03-19T06:46:11;2.83;;;2.27;;
2001;SDS011;1003;48.002;7.788;2023-03-19T06:48:38;2.87;;;2.00;;
2001;SDS011;1003;48.002;7.788;2023-03-19T06:51:06;4.17;;;2.00;;
2001;SDS011;1003;48.002;7.788;2023-03-19T06:53:33;3.97;;;2.20;;
2001;SDS011;1003;48.002;7.788;2023-03-19T06:56:00;3.33;;;2.10;;
2001;SDS011;1003;48.002;7.788;2023-03-19T06:58:27;3.03;;;2.17;;
2001;SDS011;1003;48.002;7.788;2023-03-19T07:00:56;3.03;;;2.03;;
2001;SDS011;1003;48.002;7.788;2023-03-19T07:03:23;2.87;;;2.20;;
2001;SDS011;1003;48.002;7.788;2023-03-19T07:05:50;2.63;;;2.03;;
2001;SDS011;1003;48.002;7.788;2023-03-19T07:08:17;4.83;;;1.93;;
2001;SDS011;1003;48.002;7.788;2023-03-19T07:10:45;2.90;;;1.77;;
2001;SDS011;1003;48.002;7.788;2023-03-19T07:13:12;5.00;;;2.20;;
2001;SDS011;1003;48.002;7.788;2023-03-19T07:15:39;2.13;;;1.80;;
2001;SDS011;1003;48.002;7.788;2023-03-19T07:18:08;4.73;;;2.13;;
2001;SDS011;1003;48.002;7.788;2023-03-19T07:20:35;2.10;;;1.90;;
2001;SDS011;1003;48.002;7.788;2023-03-19T07:23:02;1.70;;;1.60;;
2001;SDS011;1003;48.002;7.788;2023-03-19T07:25:29;2.53;;;1.90;;
2001;SDS011;1003;48.002;7.788;2023-03-19T07:27:56;3.20;;;1.80;;
2001;SDS011;1003;48.002;7.788;2023-03-19T07:30:23;3.70;;;2.00;;
2001;SDS011;1003;48.002;7.788;2023-03-19T07:32:50;3.57;;;1.90;;
2001;SDS011;1003;48.002;7.788;2023-03-19T07:35:18;2.70;;;1.93;;
2001;SDS011;1003;48.002;7.788;2023-03-19T07:37:46;3.50;;;2.13;;
2001;SDS011;1003;48.002;7.788;2023-03-19T07:40:13;3.50;;;2.00;;
2001;SDS011;1003;48.002;7.788;2023-03-19T07:42:40;1.90;;;1.70;;
2001;SDS011;1003;48.002;7.788;2023-03-19T07:45:08;2.27;;;1.80;;
2001;SDS011;1003;48.002;7.788;2023-03-19T07:47:36;3.87;;;2.00;;
2001;SDS011;1003;48.002;7.788;2023-03-19T07:50:06;3.40;;;2.27;;
2001;SDS011;1003;48.002;7.788;2023-03-19T07:52:36;3.00;;;1.97;;
2001;SDS011;1003;48.002;7.788;2023-03-19T07:55:04;3.10;;;2.03;;
2001;SDS011;1003;48.002;7.788;2023-03-19T07:57:31;2.30;;;2.00;;
2001;SDS011;1003;48.002;7.788;2023-03-19T08:00:04;3.47;;;2.20;;
2001;SDS011;1003;48.002;7.788;2023-03-19T08:02:35;4.23;;;2.20;;
2001;SDS011;1003;48.002;7.788;2023-03-19T08:05:04;3.20;;;2.30;;
2001;SDS011;1003;48.002;7.788;2023-03-19T08:07:32;3.83;;;2.13;;
2001;SDS011;1003;48.002;7.788;2023-03-19T08:10:01;2.07;;;1.77;;
2001;SDS011;1003;48.002;7.788;2023-03-19T08:12:29;3.87;;;2.20;;
2001;SDS011;1003;48.002;7.788;2023-03-19T08:14:58;3.60;;;2.33;;
2001;SDS011;1003;48.002;7.788;2023-03-19T08:17:25;3.27;;;2.13;;
2001;SDS011;1003;48.002;7.788;2023-03-19T08:19:52;3.53;;;2.37;;
2001;SDS011;1003;48.002;7.788;2023-03-19T08:22:20;4.73;;;2.40;;
2001;SDS011;1003;48.002;7.788;2023-03-19T08:24:47;3.07;;;2.20;;
2001;SDS011;1003;48.002;7.788;2023-03-19T08:27:15;3.50;;;2.23;;
2001;SDS011;1003;48.002;7.788;2023-03-19T08:29:42;3.33;;;2.17;;
2001;SDS011;1003;48.002;7.788;2023-03-19T08:32:09;3.73;;;2.30;;
2001;SDS011;1003;48.002;7.788;2023-03-19T08:34:37;2.77;;;2.10;;
2001;SDS011;1003;48.002;7.788;2023-03-19T08:37:04;4.03;;;2.27;;
2001;SDS011;1003;48.002;7.788;2023-03-19T08:39:35;3.13;;;2.20;;
2001;SDS011;1003;48.002;7.788;2023-03-19T08:42:03;2.63;;;2.20;;
2001;SDS011;1003;48.002;7.788;2023-03-19T08:47:00;3.37;;;2.10;;
2001;SDS011;1003;48.002;7.788;2023-03-19T08:49:27;4.37;;;1.90;;
2001;SDS011;1003;48.002;7.788;2023-03-19T08:51:54;3.77;;;2.20;;
2001;SDS011;1003;48.002;7.788;2023-03-19T08:54:21;3.00;;;1.87;;
2001;SDS011;1003;48.002;7.788;2023-03-19T08:56:48;3.53;;;2.40;;
2001;SDS011;1003;48.002;7.788;2023-03-19T08:59:15;3.20;;;2.03;;
2001;SDS011;1003;48.002;7.788;2023-03-19T09:01:44;2.90;;;1.93;;
2001;SDS011;1003;48.002;7.788;2023-03-19T09:04:16;2.87;;;1.93;;
2001;SDS011;1003;48.002;7.788;2023-03-19T09:06:43;3.20;;;1.90;;
2001;SDS011;1003;48.002;7.788;2023-03-19T09:09:10;4.47;;;2.20;;
2001;SDS011;1003;48.002;7.788;2023-03-19T09:11:37;3.60;;;2.00;;
2001;SDS011;1003;48.002;7.788;2023-03-19T09:14:04;4.90;;;2.00;;
2001;SDS011;1003;48.002;7.788;2023-03-19T09:16:31;2.47;;;2.00;;
2001;SDS011;1003;48.002;7.788;2023-03-19T09:19:00;4.83;;;2.20;;
2001;SDS011;1003;48.002;7.788;2023-03-19T09:21:27;4.30;;;2.23;;
2001;SDS011;1003;48.002;7.788;2023-03-19T09:23:54;3.40;;;2.00;;
2001;SDS011;1003;48.002;7.788;2023-03-19T09:26:21;2.47;;;1.77;;
2001;SDS011;1003;48.002;7.788;2023-03-19T09:28:48;4.20;;;2.10;;
2001;SDS011;1003;48.002;7.788;2023-03-19T09:31:15;4.23;;;1.90;;
2001;SDS011;1003;48.002;7.788;2023-03-19T09:33:42;4.47;;;1.90;;
2001;SDS011;1003;48.002;7.788;2023-03-19T09:36:11;3.00;;;2.00;;
2001;SDS011;1003;48.002;7.788;2023-03-19T09:38:38;3.43;;;1.93;;
2001;SDS011;1003;48.002;7.788;2023-03-19T09:41:06;3.07;;;1.73;;
2001;SDS011;1003;48.002;7.788;2023-03-19T09:43:56;3.67;;;2.10;;
2001;SDS011;1003;48.002;7.788;2023-03-19T09:46:29;4.77;;;1.80;;
2001;SDS011;1003;48.002;7.788;2023-03-19T09:49:11;2.93;;;1.73;;
2001;SDS011;1003;48.002;7.788;2023-03-19T09:51:50;4.43;;;2.07;;
2001;SDS011;1003;48.002;7.788;2023-03-19T09:54:24;2.33;;;1.90;;
2001;SDS011;1003;48.002;7.788;2023-03-19T09:56:56;3.23;;;2.07;;
2001;SDS011;1003;48.002;7.788;2023-03-19T09:59:24;2.90;;;1.83;;
2001;SDS011;1003;48.002;7.788;2023-03-19T10:01:56;4.60;;;2.00;;
2001;SDS011;1003;48.002;7.788;2023-03-19T10:04:46;3.60;;;2.10;;
2001;SDS011;1003;48.002;7.788;2023-03-19T10:10:41;3.63;;;2.10;;
2001;SDS011;1003;48.002;7.788;2023-03-19T10:13:31;2.57;;;1.90;;
2001;SDS011;1003;48.002;7.788;2023-03-19T10:16:11;3.37;;;1.90;;
2001;SDS011;1003;48.002;7.788;2023-03-19T10:18:47;2.30;;;2.10;;
2001;SDS011;1003;48.002;7.788;2023-03-19T10:21:18;3.13;;;2.03;;
2001;SDS011;1003;48.002;7.788;2023-03-19T10:23:56;3.57;;;2.00;;
2001;SDS011;1003;48.002;7.788;2023-03-19T10:26:29;2.20;;;1.60;;
2001;SDS011;1003;48.002;7.788;2023-03-19T10:29:02;3.20;;;1.73;;
2001;SDS011;1003;48.002;7.788;2023-03-19T10:31:39;1.73;;;1.50;;
2001;SDS011;1003;48.002;7.788;2023-03-19T10:36:57;1.97;;;1.60;;
2001;SDS011;1003;48.002;7.788;2023-03-19T10:39:29;1.90;;;1.70;;
2001;SDS011;1003;48.002;7.788;2023-03-19T10:42:04;2.97;;;1.70;;
2001;SDS011;1003;48.002;7.788;2023-03-19T10:44:47;3.73;;;1.80;;
2001;SDS011;1003;48.002;7.788;2023-03-19T10:47:24;3.53;;;1.80;;
2001;SDS011;1003;48.002;7.788;2023-03-19T10:49:54;5.13;;;2.10;;
2001;SDS011;1003;48.002;7.788;2023-03-19T10:52:23;4.77;;;2.60;;
2001;SDS011;1003;48.002;7.788;2023-03-19T10:55:00;3.30;;;1.90;;
2001;SDS011;1003;48.002;7.788;2023-03-19T10:57:37;2.07;;;1.87;;
2001;SDS011;1003;48.002;7.788;2023-03-19T11:00:14;4.17;;;1.97;;
2001;SDS011;1003;48.002;7.788;2023-03-19T11:02:46;4.00;;;1.90;;
2001;SDS011;1003;48.002;7.788;2023-03-19T11:05:24;2.00;;;1.70;;
2001;SDS011;1003;48.002;7.788;2023-03-19T11:07:56;3.00;;;1.90;;
2001;SDS011;1003;48.002;7.788;2023-03-19T11:10:29;3.17;;;1.73;;
2001;SDS011;1003;48.002;7.788;2023-03-19T11:13:02;4.20;;;1.70;;
2001;SDS011;1003;48.002;7.788;2023-03-19T11:15:40;2.57;;;1.90;;
2001;SDS011;1003;48.002;7.788;2023-03-19T11:18:14;2.20;;;1.77;;
2001;SDS011;1003;48.002;7.788;2023-03-19T11:20:47;2.73;;;1.80;;
2001;SDS011;1003;48.002;7.788;2023-03-19T11:23:21;2.77;;;1.70;;
2001;SDS011;1003;48.002;7.788;2023-03-19T11:25:50;2.57;;;1.90;;
2001;SDS011;1003;48.002;7.788;2023-03-19T11:28:20;4.13;;;2.00;;
2001;SDS011;1003;48.002;7.788;2023-03-19T11:30:52;4.97;;;2.10;;
2001;SDS011;1003;48.002;7.788;2023-03-19T11:33:34;3.33;;;1.60;;
2001;SDS011;1003;48.002;7.788;2023-03-19T11:36:27;3.30;;;1.80;;
2001;SDS011;1003;48.002;7.788;2023-03-19T11:39:02;2.10;;;1.83;;
2001;SDS011;1003;48.002;7.788;2023-03-19T11:41:56;2.80;;;1.70;;
2001;SDS011;1003;48.002;7.788;2023-03-19T11:45:00;2.20;;;1.77;;
2001;SDS011;1003;48.002;7.788;2023-03-19T11:47:43;2.73;;;1.53;;
2001;SDS011;1003;48.002;7.788;2023-03-19T11:50:24;2.53;;;1.80;;
2001;SDS011;1003;48.002;7.788;2023-03-19T11:52:58;3.10;;;1.80;;
2001;SDS011;1003;48.002;7.788;2023-03-19T11:55:40;2.20;;;1.73;;
2001;SDS011;1003;48.002;7.788;2023-03-19T12:01:37;2.20;;;1.70;;
2001;SDS011;1003;48.002;7.788;2023-03-19T12:04:34;2.73;;;2.00;;
2001;SDS011;1003;48.002;7.788;2023-03-19T12:07:23;2.33;;;1.93;;
2001;SDS011;1003;48.002;7.788;2023-03-19T12:10:03;2.60;;;2.10;;
2001;SDS011;1003;48.002;7.788;2023-03-19T12:12:56;1.67;;;1.57;;
2001;SDS011;1003;48.002;7.788;2023-03-19T12:15:40;3.13;;;2.23;;
2001;SDS011;1003;48.002;7.788;2023-03-19T12:18:22;3.17;;;2.13;;
2001;SDS011;1003;48.002;7.788;2023-03-19T12:21:13;3.60;;;2.20;;
2001;SDS011;1003;48.002;7.788;2023-03-19T12:23:57;3.43;;;2.10;;
2001;SDS011;1003;48.002;7.788;2023-03-19T12:26:32;4.40;;;2.10;;
2001;SDS011;1003;48.002;7.788;2023-03-19T12:29:19;2.03;;;1.73;;
2001;SDS011;1003;48.002;7.788;2023-03-19T12:31:56;1.73;;;1.60;;
2001;SDS011;1003;48.002;7.788;2023-03-19T12:34:56;2.40;;;1.27;;
2001;SDS011;1003;48.002;7.788;2023-03-19T12:37:30;2.10;;;1.60;;
2001;SDS011;1003;48.002;7.788;2023-03-19T12:40:05;1.67;;;1.57;;
2001;SDS011;1003;48.002;7.788;2023-03-19T12:42:48;3.53;;;1.77;;
2001;SDS011;1003;48.002;7.788;2023-03-19T12:45:18;3.60;;;1.67;;
2001;SDS011;1003;48.002;7.788;2023-03-19T12:47:58;3.27;;;1.70;;
2001;SDS011;1003;48.002;7.788;2023-03-19T12:50:32;3.50;;;1.60;;
2001;SDS011;1003;48.002;7.788;2023-03-19T12:53:06;3.10;;;1.90;;
2001;SDS011;1003;48.002;7.788;2023-03-19T12:55:44;2.23;;;1.80;;
2001;SDS011;1003;48.002;7.788;2023-03-19T12:58:21;4.37;;;2.03;;
2001;SDS011;1003;48.002;7.788;2023-03-19T13:00:57;1.83;;;1.70;;
2001;SDS011;1003;48.002;7.788;2023-03-19T13:03:36;4.03;;;2.47;;
2001;SDS011;1003;48.002;7.788;2023-03-19T13:06:15;3.13;;;2.10;;
2001;SDS011;1003;48.002;7.788;2023-03-19T13:08:49;4.27;;;2.20;;
2001;SDS011;1003;48.002;7.788;2023-03-19T13:11:28;2.77;;;1.63;;
2001;SDS011;1003;48.002;7.788;2023-03-19T13:14:05;2.30;;;2.00;;
2001;SDS011;1003;48.002;7.788;2023-03-19T13:16:45;2.33;;;1.80;;
2001;SDS011;1003;48.002;7.788;2023-03-19T13:19:26;2.60;;;1.80;;
2001;SDS011;1003;48.002;7.788;2023-03-19T13:22:01;2.70;;;1.90;;
2001;SDS011;1003;48.002;7.788;2023-03-19T13:24:36;3.70;;;1.80;;
2001;SDS011;1003;48.002;7.788;2023-03-19T13:27:08;3.10;;;2.37;;
2001;SDS011;1003;48.002;7.788;2023-03-19T13:29:52;2.03;;;1.83;;
2001;SDS011;1003;48.002;7.788;2023-03-19T13:32:29;4.43;;;1.80;;
2001;SDS011;1003;48.002;7.788;2023-03-19T13:38:07;2.77;;;1.60;;
2001;SDS011;1003;48.002;7.788;2023-03-19T13:40:45;2.97;;;1.60;;
2001;SDS011;1003;48.002;7.788;2023-03-19T13:43:22;1.93;;;1.60;;
2001;SDS011;1003;48.002;7.788;2023-03-19T13:49:21;1.83;;;1.53;;
2001;SDS011;1003;48.002;7.788;2023-03-19T13:51:58;3.60;;;1.70;;
2001;SDS011;1003;48.002;7.788;2023-03-19T13:54:49;1.97;;;1.77;;
2001;SDS011;1003;48.002;7.788;2023-03-19T13:57:32;2.53;;;1.77;;
2001;SDS011;1003;48.002;7.788;2023-03-19T14:03:25;2.57;;;1.60;;
2001;SDS011;1003;48.002;7.788;2023-03-19T14:05:55;1.90;;;1.80;;
2001;SDS011;1003;48.002;7.788;2023-03-19T14:08:26;1.67;;;1.53;;
2001;SDS011;1003;48.002;7.788;2023-03-19T14:10:58;1.63;;;1.50;;
2001;SDS011;1003;48.002;7.788;2023-03-19T14:13:30;1.60;;;1.50;;
2001;SDS011;1003;48.002;7.788;2023-03-19T14:16:06;2.77;;;1.70;;
2001;SDS011;1003;48.002;7.788;2023-03-19T14:18:43;1.50;;;1.40;;
2001;SDS011;1003;48.002;7.788;2023-03-19T14:21:13;1.53;;;1.40;;
2001;SDS011;1003;48.002;7.788;2023-03-19T14:23:51;1.73;;;1.50;;
2001;SDS011;1003;48.002;7.788;2023-03-19T14:26:22;2.00;;;1.30;;
2001;SDS011;1003;48.002;7.788;2023-03-19T14:28:54;3.10;;;1.30;;
2001;SDS011;1003;48.002;7.788;2023-03-19T14:31:28;1.30;;;1.20;;
2001;SDS011;1003;48.002;7.788;2023-03-19T14:34:03;1.50;;;1.30;;
2001;SDS011;1003;48.002;7.788;2023-03-19T14:36:46;1.97;;;1.40;;
2001;SDS011;1003;48.002;7.788;2023-03-19T14:39:23;3.37;;;1.30;;
2001;SDS011;1003;48.002;7.788;2023-03-19T14:41:55;1.30;;;1.20;;
2001;SDS011;1003;48.002;7.788;2023-03-19T14:44:45;2.30;;;1.33;;
2001;SDS011;1003;48.002;7.788;2023-03-19T14:48:02;1.57;;;1.30;;
2001;SDS011;1003;48.002;7.788;2023-03-19T14:51:02;1.53;;;1.13;;
2001;SDS011;1003;48.002;7.788;2023-03-19T14:53:59;1.30;;;1.20;;
2001;SDS011;1003;48.002;7.788;2023-03-19T14:56:42;2.00;;;1.20;;
2001;SDS011;1003;48.002;7.788;2023-03-19T14:59:09;1.77;;;1.10;;
2001;SDS011;1003;48.002;7.788;2023-03-19T15:01:39;1.30;;;1.20;;
2001;SDS011;1003;48.002;7.788;2023-03-19T15:04:14;2.30;;;1.40;;
2001;SDS011;1003;48.002;7.788;2023-03-19T15:06:43;1.93;;;1.27;;
2001;SDS011;1003;48.002;7.788;2023-03-19T15:09:18;2.03;;;1.20;;
2001;SDS011;1003;48.002;7.788;2023-03-19T15:11:59;1.60;;;1.50;;
2001;SDS011;1003;48.002;7.788;2023-03-19T15:15:05;1.60;;;1.50;;
2001;SDS011;1003;48.002;7.788;2023-03-19T15:17:57;1.57;;;1.47;;
2001;SDS011;1003;48.002;7.788;2023-03-19T15:20:29;1.70;;;1.10;;
2001;SDS011;1003;48.002;7.788;2023-03-19T15:23:02;1.30;;;1.20;;
2001;SDS011;1003;48.002;7.788;2023-03-19T15:25:42;1.73;;;1.20;;
2001;SDS011;1003;48.002;7.788;2023-03-19T15:28:13;1.50;;;1.30;;
2001;SDS011;1003;48.002;7.788;2023-03-19T15:30:42;1.60;;;1.43;;
2001;SDS011;1003;48.002;7.788;2023-03-19T15:33:17;1.83;;;1.37;;
2001;SDS011;1003;48.002;7.788;2023-03-19T15:35:47;1.53;;;1.10;;
2001;SDS011;1003;48.002;7.788;2023-03-19T15:38:18;1.67;;;1.30;;
2001;SDS011;1003;48.002;7.788;2023-03-19T15:40:45;1.40;;;1.30;;
2001;SDS011;1003;48.002;7.788;2023-03-19T15:43:15;1.33;;;1.20;;
2001;SDS011;1003;48.002;7.788;2023-03-19T15:45:44;1.67;;;1.47;;
2001;SDS011;1003;48.002;7.788;2023-03-19T15:48:18;1.30;;;1.20;;
2001;SDS011;1003;48.002;7.788;2023-03-19T15:50:51;1.17;;;1.10;;
2001;SDS011;1003;48.002;7.788;2023-03-19T15:53:25;1.37;;;1.27;;
2001;SDS011;1003;48.002;7.788;2023-03-19T15:55:58;1.60;;;1.50;;
2001;SDS011;1003;48.002;7.788;2023-03-19T15:58:30;1.40;;;1.30;;
2001;SDS011;1003;48.002;7.788;2023-03-19T16:01:04;1.63;;;1.40;;
2001;SDS011;1003;48.002;7.788;2023-03-19T16:03:35;1.43;;;1.33;;